This is the latest recevied weather packets stored in our database for station/object N2XGL-1. If no packets are shown the sender has not sent any weather packets the latest 10 day(s).
| Time | Temp. | Humidity | Pressure | Rain* | Wind** | Luminosity | Snow |
|---|---|---|---|---|---|---|---|
| 1777937024 | 13.33° C | 75% | 1001.2 hPa | 0.76 mm | - | - | - |
| 1777936479 | 13.33° C | 74% | 1001.5 hPa | 0.76 mm | - | - | - |
| 1777935968 | 14.44° C | 68% | 1001.4 hPa | 0.76 mm | - | - | - |
| 1777935921 | 14.44° C | 68% | 1001.4 hPa | 0.76 mm | - | - | - |
| 1777934868 | 16.11° C | 54% | 1001.1 hPa | 0 mm | - | - | - |
| 1777934369 | 16.11° C | 45% | 1000.8 hPa | 0 mm | - | - | - |
| 1777933803 | 16.67° C | 43% | 1000.4 hPa | 0 mm | - | - | - |
| 1777933244 | 16.67° C | 43% | 1000.3 hPa | 0 mm | - | - | - |
| 1777932672 | 16.67° C | 44% | 1000 hPa | 0 mm | - | - | - |
| 1777932313 | 16.67° C | 43% | 999.4 hPa | 0 mm | - | - | - |
| 1777932166 | 16.67° C | 43% | 999.4 hPa | 0 mm | - | - | - |
| 1777931641 | 16.67° C | 46% | 999.4 hPa | 0 mm | - | - | - |
| 1777931099 | 16.67° C | 47% | 999.9 hPa | 0.25 mm | - | - | - |
| 1777930598 | 16.11° C | 48% | 1000.1 hPa | 0.25 mm | - | - | - |
| 1777930119 | 15° C | 50% | 1000.6 hPa | 0.25 mm | - | - | - |
| 1777929609 | 15° C | 56% | 1001.1 hPa | 0.25 mm | - | - | - |
| 1777929482 | 15° C | 50% | 1001.1 hPa | 0.25 mm | - | - | - |
| 1777928541 | 15° C | 50% | 1001.1 hPa | 0.25 mm | - | - | - |
| 1777927999 | 16.11° C | 50% | 1000.7 hPa | 0.25 mm | - | - | - |
| 1777927481 | 17.78° C | 38% | 1000.3 hPa | 0 mm | - | - | - |
| 1777926413 | 18.33° C | 34% | 999.4 hPa | 0 mm | - | - | - |
| 1777925851 | 19.44° C | 31% | 999 hPa | 0 mm | - | - | - |
| 1777925269 | 21.67° C | 26% | 998.6 hPa | 0 mm | - | - | - |
| 1777924719 | 22.22° C | 26% | 998.6 hPa | 0 mm | - | - | - |
| 1777924138 | 23.33° C | 26% | 998.6 hPa | 0 mm | - | - | - |
* Rain latest hour (hover to see other rain measurements)
** Current wind speed in m/s (hover to see current wind gust speed)